Farewell Spit, New Zealand
Current Conditions -  °F | °C
As of 4:30 AM on Tuesday 25 Nov 2014 (Local Time) from NZWN Reporting Station
Overcast Overcast  
Wind Chill: 61°   Ceiling: 900
Heat Index: 61°   Visibility: 6mi
Dew Point: 59°   Wind: 17mph
Humidity: 94%   Direction: 10°N
Pressure: 29.85"   Gusts: NA
Location:  40.51°S, 172.87°E
Report Text: NZWN 241630Z AUTO 01015KT 9999 OVC009/// 16/15 Q1011 TEMPO 4000DZ BKN008
Loading
Personal Weather Stations






























Interactive Weather Map New forecast layout! Learn more

10-Day Weather Forecast

Advertisements
Track Severe Weather on mobile